Time;durP1;ratioP1;P1;durP2;ratioP2;P2;SDS_P1;SDS_P2;PMS_P1;PMS_P2;Temp;Humidity;BMP_temperature;BMP_pressure;BME280_temperature;BME280_humidity;BME280_pressure;Samples;Min_cycle;Max_cycle;Signal;HPM_P1;HPM_P2
2023/09/01 00:01:43;;;;;;;7.63;5.65;;;;;;;28.63;77.33;100617.50;4920582;28;66519;-38
2023/09/01 00:04:23;;;;;;;7.13;5.97;;;;;;;28.96;75.66;100660.59;4929645;28;69830;-38
2023/09/01 00:06:54;;;;;;;6.65;5.50;;;;;;;28.95;76.24;100662.47;4917375;28;66610;-38
2023/09/01 00:09:24;;;;;;;12.13;5.85;;;;;;;28.94;77.23;100668.88;4908325;28;69467;-39
2023/09/01 00:11:55;;;;;;;8.35;5.88;;;;;;;28.99;77.74;100662.03;4914137;28;66923;-38
2023/09/01 00:14:25;;;;;;;6.50;5.90;;;;;;;29.02;77.96;100664.31;4920509;28;70294;-38
2023/09/01 00:16:55;;;;;;;12.50;5.57;;;;;;;29.04;77.82;100671.19;4922524;28;66129;-40
2023/09/01 00:19:25;;;;;;;8.93;6.25;;;;;;;29.05;77.12;100670.13;4922392;28;69924;-40
2023/09/01 00:21:55;;;;;;;6.13;5.45;;;;;;;29.01;78.67;100657.25;4911738;28;66679;-36
2023/09/01 00:24:25;;;;;;;6.93;5.80;;;;;;;29.10;76.19;100670.34;4907809;28;70020;-37
2023/09/01 00:26:55;;;;;;;10.48;5.80;;;;;;;29.05;73.94;100689.03;4906954;28;66181;-37
2023/09/01 00:29:25;;;;;;;6.13;5.53;;;;;;;28.96;72.31;100690.28;4898770;28;69563;-38
2023/09/01 00:31:55;;;;;;;5.72;4.75;;;;;;;28.87;69.68;100681.59;4902634;28;66069;-36
2023/09/01 00:34:25;;;;;;;5.13;4.63;;;;;;;28.83;68.35;100696.53;4911612;28;71320;-37
2023/09/01 00:36:55;;;;;;;5.57;4.97;;;;;;;28.79;66.52;100702.59;4906602;28;65880;-37
2023/09/01 00:39:26;;;;;;;6.25;4.72;;;;;;;28.64;65.19;100698.25;4908425;28;69490;-35
2023/09/01 00:41:56;;;;;;;4.72;4.35;;;;;;;28.69;63.82;100703.00;4909477;28;65534;-35
2023/09/01 00:44:27;;;;;;;9.90;4.68;;;;;;;28.61;62.73;100711.31;4912731;28;69773;-37
2023/09/01 00:46:57;;;;;;;4.85;4.25;;;;;;;28.56;62.08;100719.22;4912425;28;66572;-36
2023/09/01 00:49:27;;;;;;;4.38;3.97;;;;;;;28.57;61.59;100720.88;4913071;28;70640;-37
2023/09/01 00:51:58;;;;;;;3.92;3.63;;;;;;;28.51;60.69;100726.06;4908441;28;67044;-37
2023/09/01 00:54:28;;;;;;;4.63;4.22;;;;;;;28.50;60.99;100728.97;4905740;28;70200;-38
2023/09/01 00:56:59;;;;;;;4.47;3.83;;;;;;;28.47;59.93;100735.63;4895326;28;66283;-37
2023/09/01 00:59:30;;;;;;;4.63;3.65;;;;;;;28.36;58.75;100736.22;4911877;28;70440;-36
2023/09/01 01:02:00;;;;;;;3.85;3.40;;;;;;;28.43;58.73;100750.56;4913744;28;66345;-37
2023/09/01 01:04:33;;;;;;;7.30;4.82;;;;;;;28.48;64.75;100744.56;4911932;28;69463;-38
2023/09/01 01:07:22;;;;;;;7.10;4.07;;;;;;;28.16;69.50;100684.13;4913548;28;66041;-39
2023/09/01 01:10:18;;;;;;;7.43;5.00;;;;;;;28.73;71.51;100752.84;4912024;28;70344;-45
2023/09/01 01:13:00;;;;;;;5.18;4.32;;;;;;;28.71;73.23;100746.81;4899564;28;66352;-39
2023/09/01 01:15:32;;;;;;;5.18;4.40;;;;;;;28.81;72.79;100741.84;4910549;28;69961;-38
2023/09/01 01:18:05;;;;;;;7.43;4.80;;;;;;;29.01;74.33;100746.38;4908114;28;66448;-37
2023/09/01 01:20:38;;;;;;;10.68;4.88;;;;;;;28.80;75.82;100688.03;4909247;28;70443;-40
2023/09/01 01:23:14;;;;;;;6.70;5.15;;;;;;;29.28;75.39;100748.00;4909994;28;65309;-38
2023/09/01 01:25:51;;;;;;;16.08;4.97;;;;;;;28.93;75.50;100694.25;4908116;28;68989;-38
2023/09/01 01:28:22;;;;;;;12.25;5.88;;;;;;;29.34;76.93;100751.72;4907991;28;66100;-36
2023/09/01 01:30:52;;;;;;;7.35;4.63;;;;;;;29.40;77.00;100757.09;4901833;28;69101;-37
2023/09/01 01:33:41;;;;;;;9.73;6.50;;;;;;;29.43;78.04;100755.00;4918636;28;65507;-37
2023/09/01 01:36:17;;;;;;;11.45;6.03;;;;;;;29.51;78.14;100752.06;4911144;28;69988;-37
2023/09/01 01:39:04;;;;;;;16.33;6.75;;;;;;;29.05;78.63;100678.25;4885530;28;65948;-37
2023/09/01 01:41:44;;;;;;;8.85;6.95;;;;;;;29.58;78.86;100744.75;4911163;28;69928;-37
2023/09/01 01:44:18;;;;;;;12.80;7.32;;;;;;;29.49;79.02;100732.53;4915469;28;66770;-37
2023/09/01 01:46:51;;;;;;;11.90;7.05;;;;;;;29.64;79.08;100745.78;4894474;28;70195;-36
2023/09/01 01:49:21;;;;;;;9.27;7.38;;;;;;;29.63;79.61;100739.56;4918038;28;65540;-37
2023/09/01 01:51:51;;;;;;;8.95;7.18;;;;;;;29.67;79.48;100743.50;4900163;28;69784;-37
2023/09/01 01:54:21;;;;;;;7.47;6.75;;;;;;;29.55;79.11;100723.56;4903671;28;66205;-39
2023/09/01 01:56:52;;;;;;;6.80;5.82;;;;;;;29.68;79.04;100753.28;4917907;28;69916;-38
2023/09/01 01:59:22;;;;;;;7.30;5.78;;;;;;;29.72;79.52;100749.06;4896116;28;66118;-38
2023/09/01 02:01:52;;;;;;;8.55;6.00;;;;;;;29.75;79.06;100748.63;4909155;28;69878;-38
2023/09/01 02:04:23;;;;;;;6.60;5.70;;;;;;;29.75;79.38;100745.94;4914321;28;66584;-39
2023/09/01 02:06:53;;;;;;;8.13;5.03;;;;;;;29.79;78.33;100744.47;4919794;28;70458;-38
2023/09/01 02:09:24;;;;;;;5.28;4.35;;;;;;;29.87;75.78;100743.41;4867086;28;66038;-38
2023/09/01 02:11:54;;;;;;;5.10;4.65;;;;;;;29.93;75.26;100749.81;4873892;29;70375;-37
2023/09/01 02:14:24;;;;;;;4.47;3.80;;;;;;;29.98;74.73;100741.88;4886541;28;65640;-38
2023/09/01 02:16:55;;;;;;;4.75;4.32;;;;;;;30.05;74.41;100739.94;4885235;28;69934;-39
2023/09/01 02:19:28;;;;;;;4.63;4.22;;;;;;;30.03;74.23;100729.38;4891172;28;66554;-39
2023/09/01 02:21:58;;;;;;;9.05;4.60;;;;;;;30.10;74.11;100726.59;4886413;28;70290;-39
2023/09/01 02:24:28;;;;;;;7.80;4.47;;;;;;;30.22;77.37;100735.69;4881196;28;65029;-41
2023/09/01 02:26:59;;;;;;;6.15;4.40;;;;;;;30.24;77.12;100736.31;4868750;29;70347;-39
2023/09/01 02:29:29;;;;;;;6.57;3.97;;;;;;;30.24;77.21;100740.91;4886997;28;66456;-40
2023/09/01 02:31:59;;;;;;;25.45;4.45;;;;;;;30.22;77.14;100749.22;4889921;28;70159;-39
2023/09/01 02:34:29;;;;;;;8.70;4.28;;;;;;;30.26;76.57;100744.22;4885719;28;65581;-38
2023/09/01 02:36:59;;;;;;;22.63;3.33;;;;;;;30.27;78.10;100735.03;4887453;28;70112;-39
2023/09/01 02:39:29;;;;;;;15.82;3.70;;;;;;;30.31;77.59;100730.00;4885689;28;67155;-39
2023/09/01 02:42:01;;;;;;;8.57;3.10;;;;;;;30.28;77.99;100732.13;4857247;29;69945;-40
2023/09/01 02:44:31;;;;;;;8.85;3.45;;;;;;;30.31;77.68;100720.00;4887486;28;68432;-41
2023/09/01 02:47:03;;;;;;;9.52;2.95;;;;;;;30.35;77.40;100723.94;4888903;28;70072;-39
2023/09/01 02:49:33;;;;;;;12.65;2.53;;;;;;;30.40;75.99;100723.31;4885303;28;65277;-38
2023/09/01 02:52:05;;;;;;;72.65;5.55;;;;;;;30.39;76.00;100716.22;4887917;28;70224;-38
2023/09/01 02:54:35;;;;;;;48.95;4.22;;;;;;;30.46;76.07;100717.00;4888242;29;66521;-38
2023/09/01 02:57:05;;;;;;;12.65;2.35;;;;;;;30.56;75.16;100711.88;4887955;29;70363;-40
2023/09/01 02:59:37;;;;;;;6.20;2.53;;;;;;;30.55;75.94;100709.41;4891615;28;66515;-36
2023/09/01 03:02:08;;;;;;;2.67;2.20;;;;;;;30.49;76.34;100695.72;4895321;28;69977;-41
2023/09/01 03:04:38;;;;;;;2.10;1.90;;;;;;;30.61;75.03;100703.94;4890819;28;65856;-37
2023/09/01 03:07:08;;;;;;;2.22;1.70;;;;;;;30.61;74.75;100693.09;4902638;28;70356;-38
2023/09/01 03:09:39;;;;;;;1.73;1.27;;;;;;;30.64;74.61;100703.47;4903622;28;65755;-39
2023/09/01 03:12:10;;;;;;;1.65;1.45;;;;;;;30.71;74.59;100704.25;4895985;28;69315;-39
2023/09/01 03:14:39;;;;;;;2.92;1.30;;;;;;;30.73;77.11;100695.94;4903374;28;65461;-38
2023/09/01 03:17:09;;;;;;;2.58;1.30;;;;;;;30.65;77.01;100675.38;4909342;28;70439;-38
2023/09/01 03:19:39;;;;;;;4.63;1.27;;;;;;;30.72;77.16;100676.13;4907346;28;65739;-39
2023/09/01 03:22:10;;;;;;;2.08;0.98;;;;;;;30.73;77.14;100685.91;4919560;28;70242;-38
2023/09/01 03:24:40;;;;;;;3.08;1.35;;;;;;;30.73;77.30;100679.69;4913823;28;65796;-39
2023/09/01 03:27:10;;;;;;;5.68;2.25;;;;;;;30.70;77.37;100678.25;4918566;28;70517;-40
2023/09/01 03:29:42;;;;;;;2.17;1.30;;;;;;;30.80;76.34;100688.56;4914963;28;65245;-39
2023/09/01 03:32:13;;;;;;;5.97;1.30;;;;;;;30.80;77.51;100690.47;4897261;28;70500;-39
2023/09/01 03:34:43;;;;;;;1.50;1.08;;;;;;;30.84;77.36;100684.38;4902023;28;65713;-39
2023/09/01 03:37:13;;;;;;;4.15;1.20;;;;;;;30.79;77.27;100677.97;4916032;28;69454;-39
2023/09/01 03:39:44;;;;;;;1.77;1.13;;;;;;;30.86;77.14;100690.38;4907644;28;66622;-42
2023/09/01 03:42:14;;;;;;;1.15;0.98;;;;;;;30.86;77.02;100674.13;4902342;28;69659;-40
2023/09/01 03:44:44;;;;;;;3.97;1.20;;;;;;;30.84;76.74;100659.16;4903794;28;65065;-41
2023/09/01 03:47:14;;;;;;;2.15;0.90;;;;;;;30.87;76.94;100656.84;4920449;28;69678;-40
2023/09/01 03:49:45;;;;;;;1.10;0.90;;;;;;;30.82;76.66;100650.47;4905259;28;66734;-40
2023/09/01 03:52:15;;;;;;;2.25;1.08;;;;;;;30.92;76.30;100658.88;4876640;28;69223;-39
2023/09/01 03:54:45;;;;;;;1.98;1.23;;;;;;;30.92;76.68;100645.31;4909924;28;65432;-42
2023/09/01 03:57:15;;;;;;;2.00;1.15;;;;;;;30.91;75.90;100649.91;4916796;28;69653;-40
2023/09/01 03:59:47;;;;;;;1.15;0.70;;;;;;;30.96;76.11;100641.13;4916470;28;66587;-40
2023/09/01 04:02:18;;;;;;;4.40;0.90;;;;;;;30.97;76.28;100648.19;4921302;28;70298;-39
2023/09/01 04:04:48;;;;;;;8.13;1.30;;;;;;;31.01;75.46;100643.97;4884176;28;66643;-41
2023/09/01 04:07:18;;;;;;;1.80;0.88;;;;;;;31.03;75.24;100639.13;4905240;28;70206;-41
2023/09/01 04:09:50;;;;;;;1.33;0.90;;;;;;;30.96;75.56;100627.56;4895682;28;65849;-40
2023/09/01 04:12:20;;;;;;;13.88;1.10;;;;;;;31.07;75.76;100639.53;4920018;28;69485;-40
2023/09/01 04:14:50;;;;;;;2.38;1.13;;;;;;;30.97;75.55;100615.69;4903490;28;66096;-42
2023/09/01 04:17:20;;;;;;;1.48;0.80;;;;;;;31.10;75.38;100631.78;4918168;28;70498;-39
2023/09/01 04:19:51;;;;;;;1.00;0.82;;;;;;;31.09;75.62;100619.28;4919064;28;66382;-38
2023/09/01 04:22:21;;;;;;;9.93;1.10;;;;;;;31.16;75.89;100619.19;4898685;28;69537;-39
2023/09/01 04:24:51;;;;;;;1.92;0.85;;;;;;;31.10;76.18;100614.69;4915445;28;66500;-41
2023/09/01 04:27:22;;;;;;;2.50;1.00;;;;;;;31.19;76.04;100612.50;4900379;28;69782;-40
2023/09/01 04:29:54;;;;;;;2.53;1.27;;;;;;;30.94;75.59;100561.97;4917634;28;66242;-41
2023/09/01 04:32:40;;;;;;;1.75;0.75;;;;;;;31.14;75.48;100583.38;4896696;28;69324;-39
2023/09/01 04:35:12;;;;;;;3.70;1.27;;;;;;;31.25;75.24;100589.88;4903360;28;66496;-40
2023/09/01 04:37:42;;;;;;;1.83;1.40;;;;;;;31.24;74.78;100582.84;4895961;28;70090;-41
2023/09/01 04:40:12;;;;;;;2.75;1.73;;;;;;;31.28;74.30;100575.88;4905807;28;66681;-40
2023/09/01 04:42:42;;;;;;;4.97;1.70;;;;;;;31.30;74.66;100571.88;4894056;28;70592;-41
2023/09/01 04:45:13;;;;;;;11.45;2.03;;;;;;;31.31;74.05;100570.00;4897326;28;65564;-40
2023/09/01 04:47:44;;;;;;;2.60;1.80;;;;;;;31.05;73.83;100520.56;4919495;28;69969;-39
2023/09/01 04:50:14;;;;;;;8.55;1.80;;;;;;;31.30;74.08;100561.03;4883999;29;65716;-40
2023/09/01 04:52:44;;;;;;;2.20;1.50;;;;;;;31.32;73.53;100560.81;4914724;28;70061;-41
2023/09/01 04:55:14;;;;;;;4.05;1.60;;;;;;;31.30;73.90;100555.63;4906154;28;66231;-41
2023/09/01 04:57:45;;;;;;;3.47;1.17;;;;;;;31.32;73.56;100558.13;4887859;28;70093;-40
2023/09/01 05:00:16;;;;;;;2.05;1.48;;;;;;;31.30;73.48;100552.91;4903616;28;65734;-40
2023/09/01 05:02:46;;;;;;;2.75;1.63;;;;;;;31.31;73.73;100546.44;4901720;28;69912;-39
2023/09/01 05:05:17;;;;;;;3.47;1.17;;;;;;;31.31;73.48;100556.44;4899006;28;65266;-39
2023/09/01 05:07:47;;;;;;;1.75;1.60;;;;;;;31.28;73.74;100546.06;4884651;28;69620;-40
2023/09/01 05:10:19;;;;;;;1.63;1.52;;;;;;;31.31;73.72;100551.84;4894769;28;66663;-40
2023/09/01 05:12:50;;;;;;;4.35;1.75;;;;;;;31.30;73.61;100554.81;4902762;28;69941;-41
2023/09/01 05:15:20;;;;;;;2.28;1.60;;;;;;;31.30;73.16;100550.19;4903726;28;66267;-39
2023/09/01 05:17:50;;;;;;;1.98;1.77;;;;;;;31.26;73.65;100531.91;4891658;28;69815;-40
2023/09/01 05:20:21;;;;;;;2.17;1.85;;;;;;;31.33;73.45;100527.25;4923012;28;66132;-40
2023/09/01 05:22:51;;;;;;;5.55;1.70;;;;;;;31.35;73.67;100514.28;4913211;28;70479;-40
2023/09/01 05:25:21;;;;;;;4.82;2.03;;;;;;;31.37;73.40;100525.72;4905653;28;65437;-40
2023/09/01 05:27:51;;;;;;;2.30;1.80;;;;;;;31.30;73.27;100501.41;4915205;28;70172;-40
2023/09/01 05:30:21;;;;;;;7.95;2.30;;;;;;;31.37;73.48;100495.91;4915700;28;66259;-39
2023/09/01 05:32:51;;;;;;;3.35;2.30;;;;;;;31.37;73.41;100501.34;4913456;28;71520;-39
2023/09/01 05:35:21;;;;;;;7.05;2.60;;;;;;;31.41;73.86;100507.97;4910328;28;66665;-39
2023/09/01 05:37:52;;;;;;;8.85;3.30;;;;;;;31.45;74.15;100495.59;4902088;28;69527;-40
2023/09/01 05:40:23;;;;;;;4.05;3.65;;;;;;;31.48;74.13;100492.44;4908424;28;67086;-40
2023/09/01 05:42:54;;;;;;;6.68;3.78;;;;;;;31.51;74.30;100478.41;4911899;28;71053;-39
2023/09/01 05:45:24;;;;;;;3.50;3.20;;;;;;;31.56;74.12;100489.34;4905974;28;66284;-40
2023/09/01 05:47:56;;;;;;;3.65;3.35;;;;;;;31.58;73.96;100479.09;4900413;28;70656;-41
2023/09/01 05:50:27;;;;;;;4.30;3.20;;;;;;;31.58;74.40;100478.28;4903860;28;65598;-40
2023/09/01 05:52:57;;;;;;;5.13;2.85;;;;;;;31.60;74.50;100479.69;4924221;28;69619;-39
2023/09/01 05:55:29;;;;;;;6.18;3.22;;;;;;;31.37;74.08;100425.44;4919916;28;65910;-39
2023/09/01 05:58:00;;;;;;;3.85;3.50;;;;;;;31.55;74.24;100466.03;4914296;28;70297;-39
2023/09/01 06:00:30;;;;;;;5.60;3.72;;;;;;;31.64;74.25;100490.88;4916786;28;66186;-39
2023/09/01 06:03:00;;;;;;;6.90;4.35;;;;;;;31.66;74.99;100509.66;4904573;28;69128;-40
2023/09/01 06:05:31;;;;;;;5.18;4.78;;;;;;;31.67;75.16;100503.97;4921822;28;65229;-40
2023/09/01 06:08:01;;;;;;;3.63;3.38;;;;;;;31.63;75.32;100488.44;4924238;28;70377;-39
2023/09/01 06:10:32;;;;;;;4.47;4.07;;;;;;;31.61;75.68;100467.78;4919708;28;66423;-41
2023/09/01 06:13:02;;;;;;;3.90;3.63;;;;;;;31.66;75.96;100471.69;4883696;28;70248;-40
2023/09/01 06:15:32;;;;;;;4.53;4.10;;;;;;;31.65;75.77;100456.47;4915956;28;66017;-40
2023/09/01 06:18:03;;;;;;;5.65;3.95;;;;;;;31.60;76.14;100452.59;4914330;28;70026;-41
2023/09/01 06:20:33;;;;;;;5.43;4.90;;;;;;;31.70;76.51;100454.69;4917857;28;66103;-41
2023/09/01 06:23:03;;;;;;;12.35;4.55;;;;;;;31.75;77.24;100451.28;4914032;28;69798;-39
2023/09/01 06:25:33;;;;;;;5.28;4.25;;;;;;;31.76;77.47;100445.63;4911147;28;66430;-40
2023/09/01 06:28:03;;;;;;;4.57;4.13;;;;;;;31.80;77.32;100435.94;4915950;28;70201;-39
2023/09/01 06:30:35;;;;;;;11.70;5.10;;;;;;;31.78;77.37;100418.25;4911808;28;66249;-42
2023/09/01 06:33:07;;;;;;;;;;;;;;;31.65;78.38;100408.50;4905804;28;70130;-39
2023/09/01 06:35:38;;;;;;;6.65;4.55;;;;;;;31.75;76.37;100399.75;4917310;28;66047;-40
2023/09/01 06:38:08;;;;;;;7.97;3.38;;;;;;;31.67;73.80;100392.00;4908823;28;69970;-41
2023/09/01 06:40:38;;;;;;;5.30;3.05;;;;;;;31.58;71.66;100399.66;4920263;28;66215;-41
2023/09/01 06:43:07;;;;;;;4.07;3.13;;;;;;;31.39;69.80;100394.34;4923469;28;69891;-40
2023/09/01 06:45:38;;;;;;;5.43;3.05;;;;;;;31.33;68.46;100425.06;4921477;28;67196;-40
2023/09/01 06:48:08;;;;;;;3.88;3.50;;;;;;;31.25;67.66;100452.50;4920712;28;69454;-39
2023/09/01 06:50:39;;;;;;;5.07;3.00;;;;;;;31.14;66.65;100456.03;4915539;28;65641;-40
2023/09/01 06:53:09;;;;;;;6.03;3.58;;;;;;;31.02;65.48;100442.47;4921633;28;70482;-41
2023/09/01 06:55:39;;;;;;;3.17;2.97;;;;;;;30.91;65.16;100444.06;4919616;28;66429;-42
2023/09/01 06:58:09;;;;;;;3.17;2.97;;;;;;;30.78;64.77;100443.41;4924362;28;70596;-39
2023/09/01 07:00:39;;;;;;;3.00;2.80;;;;;;;30.72;63.95;100440.56;4914336;28;66011;-41
2023/09/01 07:03:09;;;;;;;2.67;2.10;;;;;;;30.72;62.54;100437.03;4924394;28;69359;-43
2023/09/01 07:05:39;;;;;;;2.25;1.80;;;;;;;30.60;62.13;100423.47;4917490;28;67548;-40
2023/09/01 07:08:14;;;;;;;1.95;1.85;;;;;;;30.62;60.87;100420.50;4914578;28;70126;-42
2023/09/01 07:10:44;;;;;;;1.40;1.30;;;;;;;30.55;60.21;100414.38;4919922;28;66291;-42
2023/09/01 07:13:14;;;;;;;1.52;1.42;;;;;;;30.43;59.73;100398.91;4915249;28;70706;-40
2023/09/01 07:15:49;;;;;;;1.10;1.00;;;;;;;30.41;59.27;100389.38;4924274;28;66909;-40
2023/09/01 07:18:19;;;;;;;1.30;1.20;;;;;;;30.33;58.50;100386.97;4913040;28;70775;-40
2023/09/01 07:20:50;;;;;;;1.40;1.30;;;;;;;30.32;57.83;100375.34;4910607;28;66338;-39
2023/09/01 07:23:20;;;;;;;1.45;1.35;;;;;;;30.26;57.56;100371.66;4912653;28;69929;-40
2023/09/01 07:25:53;;;;;;;1.67;1.58;;;;;;;30.23;57.23;100361.31;4919682;28;67291;-40
2023/09/01 07:28:23;;;;;;;1.50;1.30;;;;;;;30.12;56.67;100340.41;4918011;28;70980;-40
2023/09/01 07:30:53;;;;;;;1.45;1.35;;;;;;;30.19;56.23;100359.25;4923854;28;65710;-40
2023/09/01 07:33:23;;;;;;;1.23;1.13;;;;;;;30.18;56.53;100361.13;4918681;28;70704;-40
2023/09/01 07:35:53;;;;;;;1.40;1.30;;;;;;;30.05;56.12;100353.16;4915655;28;66000;-41
2023/09/01 07:38:23;;;;;;;1.50;1.40;;;;;;;30.13;55.57;100366.38;4917214;28;70387;-40
2023/09/01 07:40:54;;;;;;;1.63;1.52;;;;;;;30.11;55.98;100362.25;4918085;28;65678;-39
2023/09/01 07:43:23;;;;;;;2.08;1.83;;;;;;;30.11;54.82;100352.25;4915884;28;69471;-41
2023/09/01 07:45:53;;;;;;;2.03;1.90;;;;;;;30.19;56.92;100340.31;4911037;28;66274;-41
2023/09/01 07:48:24;;;;;;;3.60;1.95;;;;;;;30.27;58.28;100319.19;4922261;28;70542;-41
2023/09/01 07:50:55;;;;;;;2.33;2.22;;;;;;;30.32;59.65;100317.69;4919588;28;66128;-42
2023/09/01 07:53:25;;;;;;;2.45;2.35;;;;;;;30.45;60.10;100337.28;4914501;28;70179;-42
2023/09/01 07:55:56;;;;;;;2.63;2.42;;;;;;;30.58;60.78;100357.06;4916471;28;65382;-40
2023/09/01 07:58:26;;;;;;;2.85;2.65;;;;;;;30.66;61.49;100354.84;4914404;28;70445;-40
2023/09/01 08:00:56;;;;;;;2.40;2.20;;;;;;;30.71;62.35;100352.28;4904764;28;65796;-42
2023/09/01 08:03:26;;;;;;;2.28;2.13;;;;;;;30.79;62.30;100358.44;4913508;28;70414;-41
2023/09/01 08:05:59;;;;;;;2.65;2.15;;;;;;;30.45;62.99;100303.94;4914252;28;67614;-40
2023/09/01 08:08:29;;;;;;;2.00;1.90;;;;;;;30.86;63.54;100378.13;4913674;28;70233;-39
2023/09/01 08:10:59;;;;;;;1.60;1.50;;;;;;;30.90;63.50;100376.63;4896911;28;66317;-41
2023/09/01 08:13:30;;;;;;;1.00;0.90;;;;;;;30.90;64.01;100373.91;4892490;28;69636;-43
2023/09/01 08:16:00;;;;;;;1.20;1.10;;;;;;;30.96;63.89;100369.44;4913903;28;66317;-41
2023/09/01 08:18:30;;;;;;;1.15;1.05;;;;;;;30.97;64.24;100365.66;4912115;28;70235;-40
2023/09/01 08:21:04;;;;;;;1.40;1.20;;;;;;;30.99;64.24;100350.84;4881478;29;66375;-41
2023/09/01 08:23:35;;;;;;;1.00;0.90;;;;;;;31.02;64.78;100353.06;4918980;28;70752;-41
2023/09/01 08:26:05;;;;;;;1.45;1.35;;;;;;;31.03;65.30;100362.84;4923407;28;66095;-42
2023/09/01 08:28:35;;;;;;;1.90;1.20;;;;;;;31.01;65.41;100358.72;4921485;28;69859;-41
2023/09/01 08:31:09;;;;;;;2.05;0.90;;;;;;;31.05;65.53;100362.63;4913719;28;65942;-42
2023/09/01 08:33:41;;;;;;;1.00;0.98;;;;;;;31.05;65.97;100352.59;4912969;28;69624;-40
2023/09/01 08:36:11;;;;;;;1.30;1.20;;;;;;;31.10;66.26;100366.28;4912804;28;67060;-40
2023/09/01 08:38:42;;;;;;;1.17;1.08;;;;;;;31.12;66.22;100361.47;4914585;28;70155;-40
2023/09/01 08:41:13;;;;;;;5.45;2.15;;;;;;;31.13;67.25;100360.38;4898192;28;65843;-41
2023/09/01 08:43:45;;;;;;;7.35;2.88;;;;;;;31.12;67.97;100350.63;4912504;28;70415;-42
2023/09/01 08:46:21;;;;;;;8.05;2.85;;;;;;;31.11;68.02;100346.25;4900680;28;66736;-41
2023/09/01 08:48:52;;;;;;;2.97;2.58;;;;;;;31.22;68.54;100346.50;4920339;28;70009;-43
2023/09/01 08:51:24;;;;;;;3.20;3.00;;;;;;;31.04;69.05;100312.22;4912841;28;66166;-41
2023/09/01 08:53:55;;;;;;;3.20;2.97;;;;;;;31.25;69.28;100346.00;4900926;28;69771;-41
2023/09/01 08:56:25;;;;;;;3.40;3.10;;;;;;;31.27;69.62;100357.44;4896688;28;66155;-41
2023/09/01 08:58:55;;;;;;;3.28;2.97;;;;;;;31.31;69.82;100347.78;4900408;28;70226;-39
2023/09/01 09:01:25;;;;;;;6.63;3.88;;;;;;;31.29;70.23;100348.03;4902943;28;66998;-41
2023/09/01 09:03:57;;;;;;;;;;;;;;;31.15;71.35;100358.28;4903804;28;70477;-41
2023/09/01 09:06:35;;;;;;;5.03;4.47;;;;;;;31.36;71.56;100350.63;4915323;28;65665;-36
2023/09/01 09:09:14;;;;;;;5.32;3.97;;;;;;;31.41;71.41;100348.06;4900832;28;69881;-36
2023/09/01 09:12:00;;;;;;;4.47;4.05;;;;;;;31.36;71.24;100342.50;4913210;28;66793;-35
2023/09/01 09:14:52;;;;;;;6.65;3.97;;;;;;;31.34;71.17;100344.59;4921309;28;69737;-35
2023/09/01 09:17:49;;;;;;;4.03;3.72;;;;;;;31.33;71.36;100348.38;4915940;28;66677;-36
2023/09/01 09:20:22;;;;;;;4.28;3.90;;;;;;;31.33;71.33;100348.38;4914543;28;70004;-40
2023/09/01 09:22:54;;;;;;;5.13;3.92;;;;;;;31.38;71.56;100359.38;4906192;28;66123;-38
2023/09/01 09:25:30;;;;;;;4.68;3.97;;;;;;;31.36;71.35;100364.19;4915688;28;70572;-42
2023/09/01 09:28:12;;;;;;;7.35;4.97;;;;;;;31.32;71.73;100363.00;4910244;28;66808;-38
2023/09/01 09:30:52;;;;;;;4.90;4.50;;;;;;;31.38;72.34;100378.34;4874818;28;70415;-40
2023/09/01 09:33:27;;;;;;;5.20;4.57;;;;;;;31.07;72.69;100328.81;4882052;28;66122;-40
2023/09/01 09:35:58;;;;;;;6.15;4.40;;;;;;;31.41;72.74;100388.72;4916411;28;69539;-40
2023/09/01 09:38:46;;;;;;;4.97;4.38;;;;;;;31.39;72.89;100379.97;4898006;28;66056;-39
2023/09/01 09:41:16;;;;;;;6.53;3.90;;;;;;;31.13;73.17;100344.13;4916631;28;70553;-41
2023/09/01 09:43:48;;;;;;;4.88;4.47;;;;;;;31.34;73.22;100371.69;4906584;28;65887;-40
2023/09/01 09:46:19;;;;;;;6.88;4.85;;;;;;;31.46;73.33;100402.38;4895007;28;69885;-39
2023/09/01 09:48:50;;;;;;;6.20;4.27;;;;;;;31.47;73.46;100404.00;4902649;28;65902;-43
2023/09/01 09:51:22;;;;;;;4.87;4.57;;;;;;;30.92;73.99;100317.59;4899784;28;69864;-39
2023/09/01 09:53:55;;;;;;;5.22;4.15;;;;;;;31.27;74.07;100379.13;4914693;28;66005;-39
2023/09/01 09:56:33;;;;;;;5.03;4.38;;;;;;;31.52;73.61;100423.13;4925574;28;70074;-38
2023/09/01 09:59:05;;;;;;;5.28;4.15;;;;;;;31.50;73.88;100440.69;4915771;28;65743;-40
2023/09/01 10:01:39;;;;;;;5.60;5.10;;;;;;;31.48;74.38;100446.34;4934153;28;70055;-40
2023/09/01 10:04:10;;;;;;;7.90;7.10;;;;;;;31.48;73.96;100457.19;4919366;28;65879;-40
2023/09/01 10:06:42;;;;;;;14.50;12.97;;;;;;;31.46;73.77;100461.19;4899733;28;70185;-38
2023/09/01 10:09:16;;;;;;;15.73;14.15;;;;;;;31.47;73.75;100463.66;4912285;28;66182;-39
2023/09/01 10:11:47;;;;;;;17.83;16.00;;;;;;;31.46;73.93;100462.00;4925357;28;70041;-38
2023/09/01 10:14:20;;;;;;;17.17;13.80;;;;;;;31.41;73.83;100461.88;4924164;28;66019;-39
2023/09/01 10:16:51;;;;;;;16.50;12.80;;;;;;;31.33;73.57;100445.94;4908165;28;70061;-39
2023/09/01 10:19:24;;;;;;;16.23;12.05;;;;;;;31.35;73.86;100477.16;4921110;28;65328;-38
2023/09/01 10:21:54;;;;;;;12.77;11.15;;;;;;;31.36;74.04;100472.59;4918164;28;70135;-39
2023/09/01 10:24:24;;;;;;;17.02;10.23;;;;;;;31.27;74.00;100460.41;4925027;28;66172;-38
2023/09/01 10:27:10;;;;;;;11.02;9.30;;;;;;;31.28;73.78;100481.03;4905200;28;69207;-39
2023/09/01 10:29:40;;;;;;;12.98;8.52;;;;;;;31.32;74.02;100487.66;4925805;28;66604;-39
2023/09/01 10:32:18;;;;;;;8.15;7.30;;;;;;;31.33;73.47;100494.72;4916756;28;70372;-39
2023/09/01 10:34:52;;;;;;;7.63;7.03;;;;;;;31.25;73.11;100481.50;4926968;28;67222;-41
2023/09/01 10:37:30;;;;;;;6.45;5.80;;;;;;;30.97;72.70;100447.75;4884838;28;69662;-41
2023/09/01 10:40:01;;;;;;;6.97;4.97;;;;;;;31.25;72.63;100485.03;4915757;28;66262;-41
2023/09/01 10:42:48;;;;;;;5.50;5.10;;;;;;;31.24;72.22;100474.44;4921840;28;70017;-38
2023/09/01 10:45:18;;;;;;;7.05;4.35;;;;;;;31.21;72.51;100472.19;4923435;28;66131;-39
2023/09/01 10:47:52;;;;;;;5.18;4.20;;;;;;;31.17;72.26;100469.97;4920427;28;70136;-37
2023/09/01 10:50:23;;;;;;;5.05;4.55;;;;;;;31.19;71.85;100471.59;4919504;28;66349;-40
2023/09/01 10:53:28;;;;;;;4.65;4.10;;;;;;;31.09;71.74;100483.84;4924050;28;69046;-39
2023/09/01 10:56:09;;;;;;;4.88;4.47;;;;;;;31.14;71.81;100496.66;4924494;28;66254;-39
2023/09/01 10:58:41;;;;;;;4.38;4.07;;;;;;;30.55;72.33;100407.06;4917770;28;69894;-39
2023/09/01 11:01:40;;;;;;;4.70;4.15;;;;;;;31.01;72.55;100492.28;4924053;28;66215;-38
2023/09/01 11:04:22;;;;;;;8.43;4.25;;;;;;;31.08;71.94;100505.72;4918964;28;70484;-38
2023/09/01 11:06:59;;;;;;;3.88;3.58;;;;;;;31.08;72.04;100508.44;4926463;28;65762;-42
2023/09/01 11:09:35;;;;;;;4.65;3.65;;;;;;;31.09;71.98;100505.50;4924866;28;70290;-39
2023/09/01 11:12:07;;;;;;;6.03;3.58;;;;;;;31.09;71.86;100520.91;4931904;28;66157;-39
2023/09/01 11:14:57;;;;;;;;;;;;;;;30.88;72.88;100522.25;4910128;28;70507;-40
2023/09/01 11:17:38;;;;;;;3.58;3.33;;;;;;;31.04;72.21;100518.91;4926331;28;66344;-46
2023/09/01 11:20:10;;;;;;;4.32;3.63;;;;;;;30.99;72.42;100535.03;4906587;28;70053;-39
2023/09/01 11:22:41;;;;;;;4.63;3.28;;;;;;;30.71;72.40;100497.66;4927960;28;66604;-39
2023/09/01 11:25:14;;;;;;;4.07;3.78;;;;;;;31.04;72.57;100562.25;4934892;28;70663;-39
2023/09/01 11:27:46;;;;;;;4.72;3.88;;;;;;;31.05;72.56;100565.78;4923667;28;67247;-38
2023/09/01 11:30:18;;;;;;;4.13;3.65;;;;;;;30.95;73.01;100569.03;4906644;28;70133;-39
2023/09/01 11:32:48;;;;;;;;;;;;;;;30.85;73.52;100574.16;4923724;28;66442;-40
2023/09/01 11:35:27;;;;;;;4.25;3.80;;;;;;;30.67;73.49;100518.97;4921461;28;69805;-41
2023/09/01 11:37:59;;;;;;;7.25;3.60;;;;;;;31.02;73.82;100575.19;4928978;28;66351;-37
2023/09/01 11:40:33;;;;;;;6.80;3.72;;;;;;;31.04;74.07;100574.97;4920223;28;70268;-38
2023/09/01 11:43:04;;;;;;;9.55;4.75;;;;;;;31.02;74.67;100577.91;4930948;28;66006;-40
2023/09/01 11:45:34;;;;;;;6.35;4.93;;;;;;;31.04;74.62;100580.41;4904884;28;69975;-40
2023/09/01 11:48:04;;;;;;;4.63;4.22;;;;;;;31.01;74.59;100584.38;4928348;28;66124;-38